createdAt,value
2018-07-19T00:00:07.215Z,1010.80
2018-07-19T00:01:07.149Z,1010.77
2018-07-19T00:02:07.066Z,1010.81
2018-07-19T00:03:06.990Z,1010.74
2018-07-19T00:04:06.899Z,1010.77
2018-07-19T00:05:06.822Z,1010.77
2018-07-19T00:06:06.747Z,1010.77
2018-07-19T00:07:06.672Z,1010.75
2018-07-19T00:08:06.620Z,1010.74
2018-07-19T00:09:06.517Z,1010.78
2018-07-19T00:10:06.439Z,1010.78
2018-07-19T00:11:06.351Z,1010.80
2018-07-19T00:12:06.289Z,1010.77
2018-07-19T00:13:06.198Z,1010.78
2018-07-19T00:14:06.124Z,1010.80
2018-07-19T00:15:06.050Z,1010.79
2018-07-19T00:16:05.962Z,1010.79
2018-07-19T00:17:05.887Z,1010.75
2018-07-19T00:18:05.812Z,1010.76
2018-07-19T00:19:05.821Z,1010.76
2018-07-19T00:20:05.650Z,1010.80
2018-07-19T00:21:05.576Z,1010.77
2018-07-19T00:22:05.500Z,1010.80
2018-07-19T00:23:05.426Z,1010.80
2018-07-19T00:24:05.339Z,1010.77
2018-07-19T00:25:05.262Z,1010.81
2018-07-19T00:26:05.190Z,1010.82
2018-07-19T00:27:05.113Z,1010.83
2018-07-19T00:28:05.025Z,1010.83
2018-07-19T00:29:04.954Z,1010.85
2018-07-19T00:30:04.877Z,1010.87
2018-07-19T00:31:04.801Z,1010.86
2018-07-19T00:32:04.716Z,1010.88
2018-07-19T00:33:04.641Z,1010.87
2018-07-19T00:34:04.566Z,1010.89
2018-07-19T00:35:04.478Z,1010.86
2018-07-19T00:36:04.402Z,1010.87
2018-07-19T00:37:04.325Z,1010.87
2018-07-19T00:38:04.251Z,1010.88
2018-07-19T00:39:04.176Z,1010.87
2018-07-19T00:40:04.089Z,1010.85
2018-07-19T00:41:04.016Z,1010.88
2018-07-19T00:42:03.941Z,1010.89
2018-07-19T00:43:03.854Z,1010.85
2018-07-19T00:44:03.778Z,1010.89
2018-07-19T00:45:03.951Z,1010.91
2018-07-19T00:46:03.626Z,1010.88
2018-07-19T00:47:03.540Z,1010.92
2018-07-19T00:48:03.465Z,1010.92
2018-07-19T00:49:03.389Z,1010.95
2018-07-19T00:50:03.315Z,1010.91
2018-07-19T00:51:03.227Z,1010.91
2018-07-19T00:52:03.164Z,1010.91
2018-07-19T00:53:03.083Z,1010.89
2018-07-19T00:54:03.006Z,1010.91
2018-07-19T00:55:02.918Z,1010.92
2018-07-19T00:56:02.843Z,1010.92
2018-07-19T00:57:02.766Z,1010.90
2018-07-19T00:58:02.690Z,1010.87
2018-07-19T00:59:02.602Z,1010.84
2018-07-19T01:00:02.528Z,1010.80
2018-07-19T01:01:02.455Z,1010.83
2018-07-19T01:02:02.369Z,1010.82
2018-07-19T01:03:02.295Z,1010.84
2018-07-19T01:04:02.220Z,1010.83
2018-07-19T01:05:02.144Z,1010.80
2018-07-19T01:06:02.055Z,1010.82
2018-07-19T01:07:01.993Z,1010.80
2018-07-19T01:08:01.905Z,1010.83
2018-07-19T01:09:01.829Z,1010.83
2018-07-19T01:10:01.754Z,1010.82
2018-07-19T01:11:01.668Z,1010.82
2018-07-19T01:12:01.595Z,1010.79
2018-07-19T01:13:01.509Z,1010.80
2018-07-19T01:14:01.431Z,1010.77
2018-07-19T01:15:01.356Z,1010.77
2018-07-19T01:16:01.281Z,1010.80
2018-07-19T01:17:01.193Z,1010.79
2018-07-19T01:18:01.119Z,1010.76
2018-07-19T01:19:01.044Z,1010.78
2018-07-19T01:20:00.969Z,1010.73
2018-07-19T01:21:00.887Z,1010.74
2018-07-19T01:22:00.807Z,1010.72
2018-07-19T01:23:00.733Z,1010.74
2018-07-19T01:24:00.646Z,1010.72
2018-07-19T01:25:00.568Z,1010.76
2018-07-19T01:26:00.493Z,1010.74
2018-07-19T01:27:00.418Z,1010.78
2018-07-19T01:28:00.333Z,1010.72
2018-07-19T01:29:00.261Z,1010.77
2018-07-19T01:30:00.183Z,1010.75
2018-07-19T01:31:00.097Z,1010.76
2018-07-19T01:32:00.021Z,1010.74
2018-07-19T01:32:59.944Z,1010.74
2018-07-19T01:33:59.868Z,1010.72
2018-07-19T01:34:59.781Z,1010.72
2018-07-19T01:35:59.706Z,1010.67
2018-07-19T01:36:59.631Z,1010.71
2018-07-19T01:37:59.559Z,1010.71
2018-07-19T01:38:59.469Z,1010.70
2018-07-19T01:39:59.394Z,1010.73
2018-07-19T01:40:59.323Z,1010.71
2018-07-19T01:41:59.234Z,1010.72
2018-07-19T01:42:59.159Z,1010.74
2018-07-19T01:43:59.084Z,1010.78
2018-07-19T01:44:58.995Z,1010.76
2018-07-19T01:45:58.920Z,1010.75
2018-07-19T01:46:58.857Z,1010.73
2018-07-19T01:47:58.776Z,1010.77
2018-07-19T01:48:58.686Z,1010.75
2018-07-19T01:49:58.609Z,1010.75
2018-07-19T01:50:58.535Z,1010.78
2018-07-19T01:51:58.449Z,1010.80
2018-07-19T01:52:58.373Z,1010.78
2018-07-19T01:53:58.298Z,1010.79
2018-07-19T01:54:58.211Z,1010.79
2018-07-19T01:55:58.135Z,1010.80
2018-07-19T01:56:58.058Z,1010.75
2018-07-19T01:57:57.995Z,1010.74
2018-07-19T01:58:57.897Z,1010.76
2018-07-19T01:59:58.121Z,1010.79
2018-07-19T02:00:57.749Z,1010.79
2018-07-19T02:01:57.662Z,1010.77
2018-07-19T02:02:57.603Z,1010.77
2018-07-19T02:03:57.511Z,1010.78
2018-07-19T02:04:57.434Z,1010.77
2018-07-19T02:05:57.359Z,1010.78
2018-07-19T02:06:57.276Z,1010.78
2018-07-19T02:07:57.198Z,1010.83
2018-07-19T02:08:57.109Z,1010.82
2018-07-19T02:09:57.297Z,1010.86
2018-07-19T02:10:56.961Z,1010.83
2018-07-19T02:11:56.875Z,1010.80
2018-07-19T02:12:56.800Z,1010.78
2018-07-19T02:13:56.726Z,1010.76
2018-07-19T02:14:56.641Z,1010.81
2018-07-19T02:15:56.563Z,1010.75
2018-07-19T02:16:56.500Z,1010.77
2018-07-19T02:17:56.412Z,1010.80
2018-07-19T02:18:56.324Z,1010.72
2018-07-19T02:19:56.249Z,1010.76
2018-07-19T02:20:56.176Z,1010.72
2018-07-19T02:21:56.089Z,1010.79
2018-07-19T02:22:56.017Z,1010.77
2018-07-19T02:23:55.939Z,1010.78
2018-07-19T02:24:55.851Z,1010.77
2018-07-19T02:25:55.777Z,1010.76
2018-07-19T02:26:55.703Z,1010.79
2018-07-19T02:27:55.617Z,1010.74
2018-07-19T02:28:55.538Z,1010.78
2018-07-19T02:29:55.463Z,1010.74
2018-07-19T02:30:55.388Z,1010.74
2018-07-19T02:31:55.301Z,1010.79
2018-07-19T02:32:55.228Z,1010.79
2018-07-19T02:33:55.153Z,1010.79
2018-07-19T02:34:55.064Z,1010.81
2018-07-19T02:35:54.992Z,1010.81
2018-07-19T02:36:54.915Z,1010.78
2018-07-19T02:37:54.827Z,1010.79
2018-07-19T02:38:54.752Z,1010.79
2018-07-19T02:39:54.880Z,1010.80
2018-07-19T02:40:54.589Z,1010.78
2018-07-19T02:41:54.513Z,1010.77
2018-07-19T02:42:54.439Z,1010.80
2018-07-19T02:43:54.452Z,1010.80
2018-07-19T02:44:54.279Z,1010.76
2018-07-19T02:45:54.204Z,1010.77
2018-07-19T02:46:54.116Z,1010.82
2018-07-19T02:47:54.046Z,1010.82
2018-07-19T02:48:53.964Z,1010.81
2018-07-19T02:49:53.889Z,1010.80
2018-07-19T02:50:53.805Z,1010.86
2018-07-19T02:51:53.728Z,1010.83
2018-07-19T02:52:53.655Z,1010.82
2018-07-19T02:53:53.566Z,1010.82
2018-07-19T02:54:53.492Z,1010.82
2018-07-19T02:55:53.420Z,1010.81
2018-07-19T02:56:53.330Z,1010.82
2018-07-19T02:57:53.256Z,1010.79
2018-07-19T02:58:53.180Z,1010.81
2018-07-19T02:59:53.092Z,1010.81
2018-07-19T03:00:53.021Z,1010.82
2018-07-19T03:01:52.941Z,1010.82
2018-07-19T03:02:52.866Z,1010.83
2018-07-19T03:03:52.783Z,1010.85
2018-07-19T03:04:52.706Z,1010.81
2018-07-19T03:05:52.618Z,1010.77
2018-07-19T03:06:52.544Z,1010.77
2018-07-19T03:07:52.471Z,1010.78
2018-07-19T03:08:52.379Z,1010.77
2018-07-19T03:09:52.305Z,1010.76
2018-07-19T03:10:52.234Z,1010.82
2018-07-19T03:11:52.141Z,1010.81
2018-07-19T03:12:52.067Z,1010.85
2018-07-19T03:13:51.994Z,1010.81
2018-07-19T03:14:51.905Z,1010.81
2018-07-19T03:15:51.830Z,1010.82
2018-07-19T03:16:51.757Z,1010.83
2018-07-19T03:17:51.670Z,1010.80
2018-07-19T03:18:51.594Z,1010.79
2018-07-19T03:19:51.519Z,1010.81
2018-07-19T03:20:51.433Z,1010.85
2018-07-19T03:21:51.356Z,1010.85
2018-07-19T03:22:51.281Z,1010.87
2018-07-19T03:23:51.193Z,1010.85
2018-07-19T03:24:51.120Z,1010.83
2018-07-19T03:25:51.059Z,1010.86
2018-07-19T03:26:50.958Z,1010.86
2018-07-19T03:27:50.887Z,1010.88
2018-07-19T03:28:50.806Z,1010.87
2018-07-19T03:29:50.719Z,1010.85
2018-07-19T03:30:50.712Z,1010.88
2018-07-19T03:31:50.571Z,1010.88
2018-07-19T03:32:50.485Z,1010.87
2018-07-19T03:33:50.409Z,1010.84
2018-07-19T03:34:50.335Z,1010.88
2018-07-19T03:35:50.247Z,1010.83
2018-07-19T03:36:50.169Z,1010.85
2018-07-19T03:37:50.096Z,1010.84
2018-07-19T03:38:50.008Z,1010.82
2018-07-19T03:39:49.933Z,1010.81
2018-07-19T03:40:49.860Z,1010.83
2018-07-19T03:41:49.785Z,1010.82
2018-07-19T03:42:49.697Z,1010.87
2018-07-19T03:43:49.621Z,1010.85
2018-07-19T03:44:49.538Z,1010.84
2018-07-19T03:45:49.460Z,1010.85
2018-07-19T03:46:49.385Z,1010.87
2018-07-19T03:47:49.298Z,1010.83
2018-07-19T03:48:49.220Z,1010.88
2018-07-19T03:49:49.146Z,1010.89
2018-07-19T03:50:49.059Z,1010.87
2018-07-19T03:51:48.984Z,1010.90
2018-07-19T03:52:48.911Z,1010.86
2018-07-19T03:53:48.823Z,1010.85
2018-07-19T03:54:48.748Z,1010.86
2018-07-19T03:55:48.673Z,1010.86
2018-07-19T03:56:48.585Z,1010.86
2018-07-19T03:57:48.512Z,1010.87
2018-07-19T03:58:48.434Z,1010.83
2018-07-19T03:59:48.347Z,1010.84
2018-07-19T04:00:48.286Z,1010.84
2018-07-19T04:01:48.208Z,1010.86
2018-07-19T04:02:48.110Z,1010.87
2018-07-19T04:03:48.035Z,1010.85
2018-07-19T04:04:47.962Z,1010.85
2018-07-19T04:05:47.888Z,1010.86
2018-07-19T04:06:47.801Z,1010.83
2018-07-19T04:07:47.726Z,1010.82
2018-07-19T04:08:47.636Z,1010.82
2018-07-19T04:09:47.561Z,1010.84
2018-07-19T04:10:47.487Z,1010.86
2018-07-19T04:11:47.398Z,1010.86
2018-07-19T04:12:47.329Z,1010.83
2018-07-19T04:13:47.250Z,1010.84
2018-07-19T04:14:47.164Z,1010.86
2018-07-19T04:15:47.089Z,1010.86
2018-07-19T04:16:47.002Z,1010.88
2018-07-19T04:17:46.926Z,1010.89
2018-07-19T04:18:46.851Z,1010.86
2018-07-19T04:19:46.764Z,1010.87
2018-07-19T04:20:46.687Z,1010.85
2018-07-19T04:21:46.612Z,1010.84
2018-07-19T04:22:46.524Z,1010.87
2018-07-19T04:23:46.450Z,1010.88
2018-07-19T04:24:46.376Z,1010.90
2018-07-19T04:25:46.293Z,1010.87
2018-07-19T04:26:46.217Z,1010.93
2018-07-19T04:27:46.141Z,1010.92
2018-07-19T04:28:46.051Z,1010.95
2018-07-19T04:29:45.974Z,1010.89
2018-07-19T04:30:45.903Z,1010.92
2018-07-19T04:31:45.812Z,1010.93
2018-07-19T04:32:45.738Z,1010.90
2018-07-19T04:33:45.664Z,1010.91
2018-07-19T04:34:45.574Z,1010.88
2018-07-19T04:35:45.500Z,1010.91
2018-07-19T04:36:45.428Z,1010.94
2018-07-19T04:37:45.341Z,1010.95
2018-07-19T04:38:45.265Z,1010.96
2018-07-19T04:39:45.191Z,1010.93
2018-07-19T04:40:45.101Z,1010.92
2018-07-19T04:41:45.026Z,1010.96
2018-07-19T04:42:44.951Z,1010.99
2018-07-19T04:43:44.865Z,1010.97
2018-07-19T04:44:44.794Z,1010.94
2018-07-19T04:45:44.716Z,1010.98
2018-07-19T04:46:44.628Z,1010.99
2018-07-19T04:47:44.553Z,1010.98
2018-07-19T04:48:44.479Z,1011.01
2018-07-19T04:49:44.403Z,1011.01
2018-07-19T04:50:44.317Z,1011.02
2018-07-19T04:51:44.243Z,1011.09
2018-07-19T04:52:44.165Z,1011.12
2018-07-19T04:53:44.076Z,1011.09
2018-07-19T04:54:44.068Z,1011.09
2018-07-19T04:55:43.931Z,1011.08
2018-07-19T04:56:43.842Z,1011.11
2018-07-19T04:57:43.768Z,1011.14
2018-07-19T04:58:43.698Z,1011.13
2018-07-19T04:59:43.606Z,1011.16
2018-07-19T05:00:43.530Z,1011.14
2018-07-19T05:01:43.492Z,1011.14
2018-07-19T05:02:43.380Z,1011.13
2018-07-19T05:03:43.295Z,1011.14
2018-07-19T05:04:43.218Z,1011.18
2018-07-19T05:05:43.142Z,1011.16
2018-07-19T05:06:43.066Z,1011.15
2018-07-19T05:07:42.980Z,1011.13
2018-07-19T05:08:42.907Z,1011.20
2018-07-19T05:09:42.830Z,1011.19
2018-07-19T05:10:42.770Z,1011.17
2018-07-19T05:11:42.669Z,1011.21
2018-07-19T05:12:42.595Z,1011.22
2018-07-19T05:13:42.521Z,1011.20
2018-07-19T05:14:42.443Z,1011.21
2018-07-19T05:15:42.355Z,1011.22
2018-07-19T05:16:42.282Z,1011.24
2018-07-19T05:17:42.207Z,1011.24
2018-07-19T05:18:42.132Z,1011.23
2018-07-19T05:19:42.045Z,1011.26
2018-07-19T05:20:41.970Z,1011.24
2018-07-19T05:21:41.897Z,1011.27
2018-07-19T05:22:41.820Z,1011.28
2018-07-19T05:23:41.737Z,1011.29
2018-07-19T05:24:41.655Z,1011.26
2018-07-19T05:25:41.594Z,1011.29
2018-07-19T05:26:41.509Z,1011.26
2018-07-19T05:27:41.419Z,1011.23
2018-07-19T05:28:41.361Z,1011.24
2018-07-19T05:29:41.273Z,1011.22
2018-07-19T05:30:41.196Z,1011.24
2018-07-19T05:31:41.110Z,1011.21
2018-07-19T05:32:41.031Z,1011.22
2018-07-19T05:33:40.956Z,1011.23
2018-07-19T05:34:40.953Z,1011.24
2018-07-19T05:35:40.795Z,1011.23
2018-07-19T05:36:40.722Z,1011.27
2018-07-19T05:37:40.647Z,1011.27
2018-07-19T05:38:40.576Z,1011.23
2018-07-19T05:39:40.486Z,1011.26
2018-07-19T05:40:40.408Z,1011.30
2018-07-19T05:41:40.333Z,1011.22
2018-07-19T05:42:40.261Z,1011.26
2018-07-19T05:43:40.185Z,1011.28
2018-07-19T05:44:40.099Z,1011.29
2018-07-19T05:45:40.027Z,1011.30
2018-07-19T05:46:39.949Z,1011.31
2018-07-19T05:47:39.873Z,1011.28
2018-07-19T05:48:39.783Z,1011.27
2018-07-19T05:49:39.708Z,1011.31
2018-07-19T05:50:39.647Z,1011.26
2018-07-19T05:51:39.558Z,1011.31
2018-07-19T05:52:39.475Z,1011.25
2018-07-19T05:53:39.398Z,1011.27
2018-07-19T05:54:39.323Z,1011.25
2018-07-19T05:55:39.248Z,1011.23
2018-07-19T05:56:39.163Z,1011.23
2018-07-19T05:57:39.089Z,1011.27
2018-07-19T05:58:39.012Z,1011.28
2018-07-19T05:59:38.936Z,1011.25
2018-07-19T06:00:38.859Z,1011.30
2018-07-19T06:01:38.773Z,1011.29
2018-07-19T06:02:38.698Z,1011.31
2018-07-19T06:03:38.625Z,1011.26
2018-07-19T06:04:38.551Z,1011.29
2018-07-19T06:05:38.463Z,1011.29
2018-07-19T06:06:38.387Z,1011.30
2018-07-19T06:07:38.313Z,1011.26
2018-07-19T06:08:38.237Z,1011.29
2018-07-19T06:09:38.191Z,1011.28
2018-07-19T06:10:38.077Z,1011.28
2018-07-19T06:11:38.002Z,1011.29
2018-07-19T06:12:37.924Z,1011.25
2018-07-19T06:13:37.850Z,1011.28
2018-07-19T06:14:37.762Z,1011.28
2018-07-19T06:15:37.686Z,1011.27
2018-07-19T06:16:37.614Z,1011.27
2018-07-19T06:17:37.539Z,1011.28
2018-07-19T06:18:37.507Z,1011.27
2018-07-19T06:19:37.377Z,1011.32
2018-07-19T06:20:37.300Z,1011.27
2018-07-19T06:21:37.226Z,1011.26
2018-07-19T06:22:37.150Z,1011.26
2018-07-19T06:23:37.078Z,1011.23
2018-07-19T06:24:36.988Z,1011.23
2018-07-19T06:25:36.912Z,1011.27
2018-07-19T06:26:36.838Z,1011.24
2018-07-19T06:27:36.763Z,1011.24
2018-07-19T06:28:36.691Z,1011.27
2018-07-19T06:29:36.627Z,1011.28
2018-07-19T06:30:36.528Z,1011.27
2018-07-19T06:31:36.495Z,1011.30
2018-07-19T06:32:36.376Z,1011.28
2018-07-19T06:33:36.303Z,1011.32
2018-07-19T06:34:36.217Z,1011.31
2018-07-19T06:35:36.153Z,1011.31
2018-07-19T06:36:36.067Z,1011.31
2018-07-19T06:37:35.991Z,1011.33
2018-07-19T06:38:35.916Z,1011.31
2018-07-19T06:39:35.854Z,1011.32
2018-07-19T06:40:35.769Z,1011.35
2018-07-19T06:41:35.684Z,1011.35
2018-07-19T06:42:35.602Z,1011.36
2018-07-19T06:43:35.528Z,1011.35
2018-07-19T06:44:35.454Z,1011.36
2018-07-19T06:45:35.384Z,1011.35
2018-07-19T06:46:35.293Z,1011.33
2018-07-19T06:47:35.217Z,1011.33
2018-07-19T06:48:35.140Z,1011.35
2018-07-19T06:49:35.140Z,1011.37
2018-07-19T06:50:34.990Z,1011.37
2018-07-19T06:51:34.915Z,1011.37
2018-07-19T06:52:34.856Z,1011.39
2018-07-19T06:53:34.771Z,1011.37
2018-07-19T06:54:34.684Z,1011.33
2018-07-19T06:55:34.606Z,1011.36
2018-07-19T06:56:34.534Z,1011.35
2018-07-19T06:57:34.534Z,1011.38
2018-07-19T06:58:34.386Z,1011.35
2018-07-19T06:59:34.306Z,1011.38
2018-07-19T07:00:34.230Z,1011.40
2018-07-19T07:01:34.154Z,1011.45
2018-07-19T07:02:34.066Z,1011.43
2018-07-19T07:03:34.011Z,1011.46
2018-07-19T07:04:33.919Z,1011.48
2018-07-19T07:05:33.857Z,1011.46
2018-07-19T07:06:33.770Z,1011.47
2018-07-19T07:07:33.694Z,1011.51
2018-07-19T07:08:33.617Z,1011.52
2018-07-19T07:09:33.555Z,1011.51
2018-07-19T07:10:33.467Z,1011.53
2018-07-19T07:11:33.387Z,1011.46
2018-07-19T07:12:33.306Z,1011.52
2018-07-19T07:13:33.231Z,1011.51
2018-07-19T07:14:33.155Z,1011.52
2018-07-19T07:15:33.081Z,1011.54
2018-07-19T07:16:33.008Z,1011.53
2018-07-19T07:17:32.932Z,1011.47
2018-07-19T07:18:32.859Z,1011.51
2018-07-19T07:19:32.783Z,1011.51
2018-07-19T07:20:32.706Z,1011.53
2018-07-19T07:21:32.631Z,1011.54
2018-07-19T07:22:32.557Z,1011.52
2018-07-19T07:23:32.481Z,1011.51
2018-07-19T07:24:32.409Z,1011.54
2018-07-19T07:25:32.334Z,1011.54
2018-07-19T07:26:32.259Z,1011.58
2018-07-19T07:27:32.184Z,1011.60
2018-07-19T07:28:32.109Z,1011.61
2018-07-19T07:29:32.034Z,1011.55
2018-07-19T07:30:31.959Z,1011.57
2018-07-19T07:31:31.892Z,1011.56
2018-07-19T07:32:31.807Z,1011.57
2018-07-19T07:33:31.733Z,1011.60
2018-07-19T07:34:31.658Z,1011.58
2018-07-19T07:35:31.582Z,1011.59
2018-07-19T07:36:31.510Z,1011.58
2018-07-19T07:37:31.434Z,1011.58
2018-07-19T07:38:31.360Z,1011.59
2018-07-19T07:39:31.285Z,1011.57
2018-07-19T07:40:31.211Z,1011.57
2018-07-19T07:41:31.133Z,1011.58
2018-07-19T07:42:31.059Z,1011.58
2018-07-19T07:43:30.983Z,1011.58
2018-07-19T07:44:30.910Z,1011.57
2018-07-19T07:45:30.836Z,1011.61
2018-07-19T07:46:30.774Z,1011.64
2018-07-19T07:47:30.686Z,1011.64
2018-07-19T07:48:30.611Z,1011.67
2018-07-19T07:49:30.534Z,1011.66
2018-07-19T07:50:30.470Z,1011.69
2018-07-19T07:51:30.384Z,1011.73
2018-07-19T07:52:30.323Z,1011.73
2018-07-19T07:53:30.249Z,1011.77
2018-07-19T07:54:30.174Z,1011.74
2018-07-19T07:55:30.112Z,1011.81
2018-07-19T07:56:30.022Z,1011.74
2018-07-19T07:57:29.946Z,1011.78
2018-07-19T07:58:29.872Z,1011.74
2018-07-19T07:59:29.810Z,1011.76
2018-07-19T08:00:29.778Z,1011.77
2018-07-19T08:01:29.660Z,1011.75
2018-07-19T08:02:29.586Z,1011.72
2018-07-19T08:03:29.512Z,1011.77
2018-07-19T08:04:29.439Z,1011.81
2018-07-19T08:05:29.363Z,1011.75
2018-07-19T08:06:29.288Z,1011.80
2018-07-19T08:07:29.225Z,1011.78
2018-07-19T08:08:29.148Z,1011.80
2018-07-19T08:09:29.073Z,1011.80
2018-07-19T08:10:29.000Z,1011.80
2018-07-19T08:11:28.923Z,1011.77
2018-07-19T08:12:28.865Z,1011.77
2018-07-19T08:13:28.794Z,1011.78
2018-07-19T08:14:28.715Z,1011.79
2018-07-19T08:15:28.639Z,1011.75
2018-07-19T08:16:28.564Z,1011.79
2018-07-19T08:17:28.490Z,1011.77
2018-07-19T08:18:28.414Z,1011.79
2018-07-19T08:19:28.352Z,1011.77
2018-07-19T08:20:28.274Z,1011.76
2018-07-19T08:21:28.201Z,1011.75
2018-07-19T08:22:28.125Z,1011.77
2018-07-19T08:23:28.053Z,1011.77
2018-07-19T08:24:27.991Z,1011.80
2018-07-19T08:25:27.915Z,1011.78
2018-07-19T08:26:27.845Z,1011.76
2018-07-19T08:27:27.765Z,1011.75
2018-07-19T08:28:27.689Z,1011.72
2018-07-19T08:29:27.616Z,1011.72
2018-07-19T08:30:27.540Z,1011.72
2018-07-19T08:31:27.466Z,1011.77
2018-07-19T08:32:27.411Z,1011.75
2018-07-19T08:33:27.326Z,1011.80
2018-07-19T08:34:27.251Z,1011.76
2018-07-19T08:35:27.179Z,1011.79
2018-07-19T08:36:27.105Z,1011.81
2018-07-19T08:37:27.041Z,1011.75
2018-07-19T08:38:26.973Z,1011.82
2018-07-19T08:39:26.893Z,1011.81
2018-07-19T08:40:26.841Z,1011.84
2018-07-19T08:41:26.752Z,1011.87
2018-07-19T08:42:26.678Z,1011.88
2018-07-19T08:43:26.602Z,1011.88
2018-07-19T08:44:26.530Z,1011.91
2018-07-19T08:45:26.454Z,1011.92
2018-07-19T08:46:26.381Z,1011.90
2018-07-19T08:47:26.319Z,1011.88
2018-07-19T08:48:26.242Z,1011.88
2018-07-19T08:49:26.171Z,1011.89
2018-07-19T08:50:26.093Z,1011.89
2018-07-19T08:51:26.019Z,1011.93
2018-07-19T08:52:25.953Z,1011.97
2018-07-19T08:53:25.879Z,1011.95
2018-07-19T08:54:25.804Z,1011.96
2018-07-19T08:55:25.743Z,1011.97
2018-07-19T08:56:25.683Z,1011.97
2018-07-19T08:57:25.581Z,1012.00
2018-07-19T08:58:25.506Z,1011.97
2018-07-19T08:59:25.445Z,1011.92
2018-07-19T09:00:25.372Z,1011.91
2018-07-19T09:01:25.292Z,1011.98
2018-07-19T09:02:25.224Z,1011.97
2018-07-19T09:03:25.145Z,1011.99
2018-07-19T09:04:25.075Z,1011.97
2018-07-19T09:05:24.994Z,1011.95
2018-07-19T09:06:24.920Z,1011.97
2018-07-19T09:07:24.843Z,1011.96
2018-07-19T09:08:24.783Z,1011.98
2018-07-19T09:09:24.707Z,1011.99
2018-07-19T09:10:24.645Z,1011.96
2018-07-19T09:11:24.557Z,1011.98
2018-07-19T09:12:24.481Z,1012.00
2018-07-19T09:13:24.405Z,1011.99
2018-07-19T09:14:24.332Z,1011.97
2018-07-19T09:15:24.255Z,1011.96
2018-07-19T09:16:24.185Z,1011.99
2018-07-19T09:17:24.108Z,1011.98
2018-07-19T09:18:24.033Z,1011.97
2018-07-19T09:19:23.967Z,1011.97
2018-07-19T09:20:23.883Z,1011.95
2018-07-19T09:21:23.811Z,1011.95
2018-07-19T09:22:23.737Z,1011.93
2018-07-19T09:23:23.658Z,1011.92
2018-07-19T09:24:23.582Z,1011.95
2018-07-19T09:25:23.507Z,1011.95
2018-07-19T09:26:23.432Z,1011.96
2018-07-19T09:27:23.358Z,1011.94
2018-07-19T09:28:23.285Z,1011.91
2018-07-19T09:29:23.210Z,1011.95
2018-07-19T09:30:23.135Z,1011.95
2018-07-19T09:31:23.063Z,1011.92
2018-07-19T09:32:22.984Z,1011.94
2018-07-19T09:33:22.909Z,1011.93
2018-07-19T09:34:22.847Z,1011.96
2018-07-19T09:35:22.759Z,1011.92
2018-07-19T09:36:22.696Z,1011.98
2018-07-19T09:37:22.621Z,1011.95
2018-07-19T09:38:22.579Z,1011.95
2018-07-19T09:39:22.472Z,1011.94
2018-07-19T09:40:22.399Z,1012.05
2018-07-19T09:41:22.323Z,1011.98
2018-07-19T09:42:22.249Z,1011.95
2018-07-19T09:43:22.185Z,1011.93
2018-07-19T09:44:22.097Z,1011.94
2018-07-19T09:45:22.022Z,1011.91
2018-07-19T09:46:21.947Z,1011.94
2018-07-19T09:47:21.873Z,1011.95
2018-07-19T09:48:21.800Z,1011.92
2018-07-19T09:49:21.724Z,1011.94
2018-07-19T09:50:21.650Z,1011.91
2018-07-19T09:51:21.574Z,1011.95
2018-07-19T09:52:21.497Z,1011.93
2018-07-19T09:53:21.422Z,1011.96
2018-07-19T09:54:21.347Z,1011.98
2018-07-19T09:55:21.273Z,1011.96
2018-07-19T09:56:21.200Z,1011.96
2018-07-19T09:57:21.125Z,1011.95
2018-07-19T09:58:21.050Z,1011.99
2018-07-19T09:59:21.010Z,1011.98
2018-07-19T10:00:20.899Z,1012.00
2018-07-19T10:01:20.836Z,1011.99
2018-07-19T10:02:20.748Z,1012.00
2018-07-19T10:03:20.673Z,1012.01
2018-07-19T10:04:20.601Z,1012.02
2018-07-19T10:05:20.527Z,1012.01
2018-07-19T10:06:20.452Z,1012.04
2018-07-19T10:07:20.376Z,1012.01
2018-07-19T10:08:20.302Z,1012.00
2018-07-19T10:09:20.227Z,1012.03
2018-07-19T10:10:20.178Z,1012.05
2018-07-19T10:11:20.088Z,1012.01
2018-07-19T10:12:20.016Z,1012.04
2018-07-19T10:13:19.937Z,1012.06
2018-07-19T10:14:19.861Z,1012.08
2018-07-19T10:15:19.786Z,1012.07
2018-07-19T10:16:19.730Z,1012.08
2018-07-19T10:17:19.656Z,1012.07
2018-07-19T10:18:19.564Z,1012.10
2018-07-19T10:19:19.489Z,1012.11
2018-07-19T10:20:19.412Z,1012.13
2018-07-19T10:21:19.351Z,1012.11
2018-07-19T10:22:19.263Z,1012.12
2018-07-19T10:23:19.187Z,1012.12
2018-07-19T10:24:19.116Z,1012.16
2018-07-19T10:25:19.051Z,1012.12
2018-07-19T10:26:18.978Z,1012.12
2018-07-19T10:27:18.901Z,1012.13
2018-07-19T10:28:18.830Z,1012.15
2018-07-19T10:29:18.753Z,1012.11
2018-07-19T10:30:18.679Z,1012.14
2018-07-19T10:31:18.603Z,1012.09
2018-07-19T10:32:18.558Z,1012.11
2018-07-19T10:33:18.452Z,1012.11
2018-07-19T10:34:18.400Z,1012.11
2018-07-19T10:35:18.313Z,1012.07
2018-07-19T10:36:18.241Z,1012.09
2018-07-19T10:37:18.167Z,1012.08
2018-07-19T10:38:18.145Z,1012.09
2018-07-19T10:39:18.016Z,1012.09
2018-07-19T10:40:17.961Z,1012.10
2018-07-19T10:41:17.867Z,1012.06
2018-07-19T10:42:17.791Z,1012.10
2018-07-19T10:43:17.716Z,1012.06
2018-07-19T10:44:17.661Z,1012.09
2018-07-19T10:45:17.566Z,1012.05
2018-07-19T10:46:17.491Z,1012.07
2018-07-19T10:47:17.416Z,1012.03
2018-07-19T10:48:17.355Z,1012.02
2018-07-19T10:49:17.281Z,1012.03
2018-07-19T10:50:17.205Z,1012.01
2018-07-19T10:51:17.136Z,1012.03
2018-07-19T10:52:17.055Z,1012.00
2018-07-19T10:53:16.980Z,1011.99
2018-07-19T10:54:16.905Z,1012.00
2018-07-19T10:55:16.835Z,1011.98
2018-07-19T10:56:16.755Z,1012.00
2018-07-19T10:57:16.679Z,1011.99
2018-07-19T10:58:16.607Z,1012.00
2018-07-19T10:59:16.530Z,1012.01
2018-07-19T11:00:16.459Z,1012.04
2018-07-19T11:01:16.383Z,1011.98
2018-07-19T11:02:16.307Z,1012.00
2018-07-19T11:03:16.232Z,1012.04
2018-07-19T11:04:16.157Z,1012.02
2018-07-19T11:05:16.092Z,1012.08
2018-07-19T11:06:16.017Z,1012.06
2018-07-19T11:07:15.942Z,1012.07
2018-07-19T11:08:15.869Z,1012.12
2018-07-19T11:09:15.795Z,1012.10
2018-07-19T11:10:15.719Z,1012.09
2018-07-19T11:11:15.645Z,1012.09
2018-07-19T11:12:15.569Z,1012.16
2018-07-19T11:13:15.494Z,1012.13
2018-07-19T11:14:15.434Z,1012.09
2018-07-19T11:15:15.347Z,1012.08
2018-07-19T11:16:15.270Z,1012.14
2018-07-19T11:17:15.206Z,1012.11
2018-07-19T11:18:15.132Z,1012.15
2018-07-19T11:19:15.068Z,1012.14
2018-07-19T11:20:14.984Z,1012.12
2018-07-19T11:21:14.909Z,1012.13
2018-07-19T11:22:14.837Z,1012.10
2018-07-19T11:23:14.771Z,1012.15
2018-07-19T11:24:14.694Z,1012.13
2018-07-19T11:25:14.619Z,1012.11
2018-07-19T11:26:14.545Z,1012.12
2018-07-19T11:27:14.482Z,1012.14
2018-07-19T11:28:14.395Z,1012.14
2018-07-19T11:29:14.332Z,1012.12
2018-07-19T11:30:14.261Z,1012.13
2018-07-19T11:31:14.183Z,1012.10
2018-07-19T11:32:14.115Z,1012.14
2018-07-19T11:33:14.039Z,1012.14
2018-07-19T11:34:13.961Z,1012.13
2018-07-19T11:35:13.903Z,1012.10
2018-07-19T11:36:13.821Z,1012.09
2018-07-19T11:37:13.745Z,1012.12
2018-07-19T11:38:13.675Z,1012.12
2018-07-19T11:39:13.595Z,1012.11
2018-07-19T11:40:13.535Z,1012.10
2018-07-19T11:41:13.462Z,1012.11
2018-07-19T11:42:13.387Z,1012.11
2018-07-19T11:43:13.313Z,1012.12
2018-07-19T11:44:13.237Z,1012.14
2018-07-19T11:45:13.173Z,1012.09
2018-07-19T11:46:13.098Z,1012.11
2018-07-19T11:47:13.023Z,1012.13
2018-07-19T11:48:12.946Z,1012.11
2018-07-19T11:49:12.871Z,1012.13
2018-07-19T11:50:12.797Z,1012.13
2018-07-19T11:51:12.735Z,1012.13
2018-07-19T11:52:12.663Z,1012.11
2018-07-19T11:53:12.587Z,1012.11
2018-07-19T11:54:12.512Z,1012.11
2018-07-19T11:55:12.438Z,1012.08
2018-07-19T11:56:12.372Z,1012.10
2018-07-19T11:57:12.298Z,1012.08
2018-07-19T11:58:12.222Z,1012.10
2018-07-19T11:59:12.147Z,1012.07
2018-07-19T12:00:12.076Z,1012.11
2018-07-19T12:01:12.013Z,1012.06
2018-07-19T12:02:11.938Z,1012.08
2018-07-19T12:03:11.863Z,1012.05
2018-07-19T12:04:11.786Z,1012.05